Time;durP1;ratioP1;P1;durP2;ratioP2;P2;SDS_P1;SDS_P2;PMS_P1;PMS_P2;Temp;Humidity;BMP_temperature;BMP_pressure;BME280_temperature;BME280_humidity;BME280_pressure;Samples;Min_cycle;Max_cycle;Signal;HPM_P1;HPM_P2
2022/07/19 00:02:14;;;;;;;8.40;4.93;;;;;;;20.44;61.80;99692.31;4958363;28;20484;-89
2022/07/19 00:04:42;;;;;;;4.47;4.17;;;;;;;20.41;61.85;99692.59;4959096;28;20599;-89
2022/07/19 00:07:17;;;;;;;5.30;4.90;;;;;;;20.39;61.91;99680.41;4966084;28;20546;-88
2022/07/19 00:09:48;;;;;;;7.43;5.80;;;;;;;20.41;61.77;99686.44;4977607;28;20534;-90
2022/07/19 00:12:13;;;;;;;7.87;5.00;;;;;;;20.40;61.56;99687.44;4963992;29;20484;-88
2022/07/19 00:14:48;;;;;;;4.90;4.40;;;;;;;20.34;61.83;99683.56;4968511;28;20551;-88
2022/07/19 00:17:25;;;;;;;4.50;4.10;;;;;;;20.22;62.24;99685.66;4971036;28;20181;-89
2022/07/19 00:20:00;;;;;;;7.00;5.07;;;;;;;20.08;62.50;99686.25;4968792;29;20501;-88
2022/07/19 00:22:28;;;;;;;5.27;4.30;;;;;;;19.95;62.90;99677.81;4968306;29;20485;-89
2022/07/19 00:25:01;;;;;;;5.50;4.50;;;;;;;19.85;63.46;99678.78;4968264;28;20562;-89
2022/07/19 00:27:46;;;;;;;;;;;;;;;;;;;;;
2022/07/19 00:30:12;;;;;;;5.27;4.50;;;;;;;19.72;63.74;99678.34;4968032;28;20488;-89
2022/07/19 00:32:51;;;;;;;5.80;4.80;;;;;;;19.67;63.79;99686.78;4966703;29;20501;-89
2022/07/19 00:35:17;;;;;;;5.07;4.67;;;;;;;19.62;63.96;99685.53;4967953;28;20459;-88
2022/07/19 00:37:49;;;;;;;5.60;5.10;;;;;;;19.59;63.80;99684.03;4969033;28;20459;-88
2022/07/19 00:40:23;;;;;;;4.80;4.40;;;;;;;19.59;63.78;99683.19;4968319;28;20474;-88
2022/07/19 00:42:56;;;;;;;4.93;4.50;;;;;;;19.57;63.66;99686.00;4969273;28;20449;-88
2022/07/19 00:45:22;;;;;;;6.10;4.80;;;;;;;19.55;63.80;99677.34;4962159;28;20453;-89
2022/07/19 00:47:48;;;;;;;5.00;4.60;;;;;;;19.52;64.11;99677.63;4961735;28;20502;-88
2022/07/19 00:50:19;;;;;;;8.17;5.83;;;;;;;19.52;63.93;99677.63;4962986;28;20232;-89
2022/07/19 00:52:55;;;;;;;5.40;4.37;;;;;;;19.55;63.65;99677.34;4961944;29;20460;-89
2022/07/19 00:55:22;;;;;;;5.07;4.60;;;;;;;19.58;63.68;99682.34;4962311;29;20449;-88
2022/07/19 00:57:48;;;;;;;6.47;5.07;;;;;;;19.59;63.54;99686.69;4965395;29;20439;-89
2022/07/19 01:00:18;;;;;;;4.60;4.20;;;;;;;19.54;63.89;99680.97;4962546;29;20486;-89
2022/07/19 01:02:47;;;;;;;7.87;5.27;;;;;;;19.51;63.75;99691.13;4964605;28;20209;-88
2022/07/19 01:05:13;;;;;;;8.27;5.43;;;;;;;19.46;63.84;99687.06;4965567;28;20488;-88
2022/07/19 01:07:41;;;;;;;5.17;4.73;;;;;;;19.44;63.66;99686.41;4964208;28;21170;-88
2022/07/19 01:10:09;;;;;;;6.10;5.50;;;;;;;19.43;63.70;99683.88;4970380;28;21014;-87
2022/07/19 01:12:42;;;;;;;5.50;5.00;;;;;;;19.42;63.56;99677.72;4981129;28;20447;-90
2022/07/19 01:15:22;;;;;;;7.10;5.70;;;;;;;19.42;63.32;99677.72;4978169;28;20463;-89
2022/07/19 01:17:56;;;;;;;5.50;4.40;;;;;;;19.40;63.34;99684.19;4983789;28;20455;-89
2022/07/19 01:20:25;;;;;;;6.00;5.50;;;;;;;19.37;63.68;99687.16;4965386;28;20457;-89
2022/07/19 01:22:53;;;;;;;5.30;4.80;;;;;;;19.35;63.83;99686.47;4983057;28;20460;-89
2022/07/19 01:25:18;;;;;;;5.27;4.90;;;;;;;19.32;64.01;99687.59;4959593;28;20479;-88
2022/07/19 01:27:50;;;;;;;5.60;5.17;;;;;;;19.29;64.09;99687.09;4979486;28;20462;-88
2022/07/19 01:30:21;;;;;;;5.80;5.20;;;;;;;19.30;63.94;99688.75;4969780;28;20227;-88
2022/07/19 01:32:48;;;;;;;5.63;5.13;;;;;;;19.29;64.36;99690.59;4977830;28;20516;-88
2022/07/19 01:35:15;;;;;;;7.20;5.20;;;;;;;19.22;64.81;99687.66;4959100;28;20247;-89
2022/07/19 01:37:52;;;;;;;5.93;5.37;;;;;;;19.15;64.67;99685.78;4963722;28;21240;-88
2022/07/19 01:40:18;;;;;;;5.07;4.63;;;;;;;19.04;65.06;99689.50;4979311;28;20545;-90
2022/07/19 01:42:48;;;;;;;6.40;5.73;;;;;;;19.00;64.88;99693.44;4980973;28;20469;-89
2022/07/19 01:45:15;;;;;;;6.13;5.43;;;;;;;18.97;65.03;99686.59;4978311;28;20457;-89
2022/07/19 01:47:41;;;;;;;6.37;5.87;;;;;;;19.00;64.61;99683.63;4978327;28;20460;-90
2022/07/19 01:50:15;;;;;;;9.63;5.97;;;;;;;19.03;64.50;99687.81;4975111;28;20517;-89
2022/07/19 01:52:47;;;;;;;5.93;5.43;;;;;;;18.99;64.65;99683.78;4971111;28;20468;-88
2022/07/19 01:55:24;;;;;;;5.50;5.10;;;;;;;19.00;64.50;99680.13;4979476;28;20459;-88
2022/07/19 01:57:54;;;;;;;6.80;5.30;;;;;;;19.01;64.66;99687.16;4964585;28;20490;-89
2022/07/19 02:03:47;;;;;;;6.20;5.60;;;;;;;19.00;65.14;99682.78;4963663;28;21053;-90
2022/07/19 02:06:18;;;;;;;6.47;5.87;;;;;;;19.00;65.29;99666.81;4964091;28;20896;-89
2022/07/19 02:08:53;;;;;;;6.37;5.67;;;;;;;18.93;65.25;99671.06;4988041;28;20480;-89
2022/07/19 02:14:06;;;;;;;6.10;5.50;;;;;;;18.61;65.95;99676.84;4986517;28;20917;-88
2022/07/19 02:16:32;;;;;;;5.83;5.30;;;;;;;18.51;66.24;99667.06;4986897;28;20478;-89
2022/07/19 02:18:58;;;;;;;6.80;5.50;;;;;;;18.53;65.95;99661.59;4986420;28;20507;-89
2022/07/19 02:21:35;;;;;;;10.07;7.10;;;;;;;18.56;66.16;99669.28;4988560;28;20459;-88
2022/07/19 02:24:02;;;;;;;6.03;5.50;;;;;;;18.53;65.88;99665.09;4980893;28;20241;-89
2022/07/19 02:26:28;;;;;;;5.90;5.40;;;;;;;18.50;66.03;99672.53;4982958;28;20460;-88
2022/07/19 02:29:17;;;;;;;6.03;5.43;;;;;;;18.48;66.14;99667.34;4982309;28;20491;-89
2022/07/19 02:32:11;;;;;;;5.33;4.80;;;;;;;18.47;66.07;99660.38;4984382;28;20314;-89
2022/07/19 02:34:38;;;;;;;5.77;5.37;;;;;;;18.43;66.36;99663.47;4987263;28;20456;-90
2022/07/19 02:37:11;;;;;;;6.73;4.53;;;;;;;18.40;66.56;99653.94;4973083;28;20479;-88
2022/07/19 02:39:47;;;;;;;6.00;5.50;;;;;;;18.32;66.43;99662.66;4985540;28;20491;-89
2022/07/19 02:42:13;;;;;;;5.67;5.17;;;;;;;18.32;66.37;99656.50;4987288;28;20466;-89
2022/07/19 02:44:42;;;;;;;5.03;4.57;;;;;;;18.31;66.50;99654.84;4982212;28;20534;-89
2022/07/19 02:47:10;;;;;;;6.30;5.70;;;;;;;18.30;66.64;99655.81;4983831;28;20936;-89
2022/07/19 02:49:38;;;;;;;7.63;6.00;;;;;;;18.31;66.60;99655.69;4980157;28;20467;-89
2022/07/19 02:52:04;;;;;;;5.77;5.27;;;;;;;18.33;66.57;99655.50;4988300;28;20456;-89
2022/07/19 02:54:39;;;;;;;6.30;5.53;;;;;;;18.34;66.53;99665.19;4983377;28;20456;-88
2022/07/19 02:57:13;;;;;;;5.60;5.10;;;;;;;18.30;66.33;99659.28;4985012;28;20479;-88
2022/07/19 02:59:39;;;;;;;6.30;5.70;;;;;;;18.24;66.88;99657.22;4982353;28;20477;-89
2022/07/19 03:02:21;;;;;;;6.10;5.60;;;;;;;18.16;67.01;99661.59;4983822;28;20504;-89
2022/07/19 03:05:00;;;;;;;;;;;;;;;;;;;;;
2022/07/19 03:07:29;;;;;;;5.80;5.30;;;;;;;17.98;67.69;99667.66;4978517;28;20536;-88
2022/07/19 03:10:07;;;;;;;5.17;4.77;;;;;;;17.81;68.06;99663.91;4970888;28;20504;-89
2022/07/19 03:12:34;;;;;;;6.77;5.43;;;;;;;17.61;68.87;99660.44;4962160;29;20445;-88
2022/07/19 03:15:09;;;;;;;6.93;5.70;;;;;;;17.45;69.52;99674.28;4962269;29;20542;-88
2022/07/19 03:17:34;;;;;;;6.93;6.27;;;;;;;17.31;69.81;99672.03;4960502;29;20492;-88
2022/07/19 03:20:03;;;;;;;5.83;5.30;;;;;;;17.21;70.14;99679.16;4962770;29;20503;-88
2022/07/19 03:22:29;;;;;;;5.70;5.20;;;;;;;17.19;70.24;99675.78;4960983;28;20210;-89
2022/07/19 03:25:05;;;;;;;6.67;6.10;;;;;;;17.19;70.20;99673.13;4966235;29;20457;-89
2022/07/19 03:27:35;;;;;;;5.97;5.47;;;;;;;17.20;69.95;99677.47;4962365;29;20467;-89
2022/07/19 03:30:10;;;;;;;5.63;5.03;;;;;;;17.22;69.91;99670.22;4966461;28;20489;-89
2022/07/19 03:33:15;;;;;;;;;;;;;;;;;;;;;
2022/07/19 03:35:52;;;;;;;7.33;6.30;;;;;;;17.31;69.44;99672.03;4962075;28;20583;-88
2022/07/19 03:38:27;;;;;;;6.63;6.03;;;;;;;17.35;69.53;99678.75;4938516;28;20952;-89
2022/07/19 03:40:55;;;;;;;7.30;5.27;;;;;;;17.35;69.42;99688.53;4958773;28;20212;-89
2022/07/19 03:43:23;;;;;;;6.63;5.30;;;;;;;17.37;69.45;99687.41;4958644;29;20471;-88
2022/07/19 03:45:58;;;;;;;8.23;6.33;;;;;;;17.37;69.50;99679.44;4977034;28;20452;-90
2022/07/19 03:48:24;;;;;;;6.37;5.70;;;;;;;17.31;69.71;99676.50;4960078;28;20450;-88
2022/07/19 03:50:50;;;;;;;6.43;5.83;;;;;;;17.27;69.81;99681.25;4959056;28;20847;-88
2022/07/19 03:53:19;;;;;;;7.40;6.00;;;;;;;17.23;69.85;99682.53;4957316;29;20472;-88
2022/07/19 03:55:55;;;;;;;5.93;5.20;;;;;;;17.30;69.43;99688.94;4953947;28;20226;-89
2022/07/19 03:58:21;;;;;;;6.33;5.77;;;;;;;17.37;69.16;99691.88;4958226;28;20461;-88
2022/07/19 04:00:47;;;;;;;7.33;5.67;;;;;;;17.39;68.98;99695.22;4957509;28;20226;-89
2022/07/19 04:03:32;;;;;;;7.43;5.80;;;;;;;17.35;69.13;99697.31;4959946;28;20201;-89
2022/07/19 04:06:00;;;;;;;6.87;6.10;;;;;;;17.33;69.17;99701.09;4957952;28;20867;-88
2022/07/19 04:08:26;;;;;;;6.43;5.70;;;;;;;17.33;69.39;99691.31;4955984;28;20446;-88
2022/07/19 04:10:55;;;;;;;6.57;5.87;;;;;;;17.34;69.25;99698.31;4974102;28;20251;-88
2022/07/19 04:13:20;;;;;;;9.33;6.20;;;;;;;17.35;69.12;99701.81;4981630;28;20433;-89
2022/07/19 04:15:47;;;;;;;9.43;6.77;;;;;;;17.21;69.69;99706.53;4959719;28;21006;-88
2022/07/19 04:18:16;;;;;;;5.97;5.47;;;;;;;17.10;70.18;99717.28;4976497;28;20208;-89
2022/07/19 04:20:43;;;;;;;6.27;5.77;;;;;;;17.07;70.05;99724.69;4976769;28;20462;-89
2022/07/19 04:23:11;;;;;;;6.33;5.07;;;;;;;17.06;70.12;99720.34;4966880;28;20464;-86
2022/07/19 04:25:37;;;;;;;6.67;5.60;;;;;;;17.05;70.24;99718.66;4978427;28;20464;-90
2022/07/19 04:28:14;;;;;;;6.00;5.40;;;;;;;17.04;70.21;99717.84;4974128;28;20558;-88
2022/07/19 04:30:40;;;;;;;5.63;5.10;;;;;;;17.01;70.27;99723.38;4978691;28;20518;-89
2022/07/19 04:33:13;;;;;;;6.53;5.93;;;;;;;17.05;70.27;99719.50;4976040;28;21026;-88
2022/07/19 04:35:41;;;;;;;5.87;5.27;;;;;;;17.09;70.20;99720.06;4979054;28;20209;-90
2022/07/19 04:38:17;;;;;;;6.10;5.50;;;;;;;17.15;69.91;99719.53;4973472;28;20548;-90
2022/07/19 04:40:52;;;;;;;7.63;5.50;;;;;;;17.26;69.57;99719.41;4978672;28;20452;-89
2022/07/19 04:43:18;;;;;;;7.00;6.30;;;;;;;17.38;68.96;99712.97;4972622;28;20579;-90
2022/07/19 04:45:44;;;;;;;7.80;5.83;;;;;;;17.51;68.77;99717.19;4979269;28;20484;-90
2022/07/19 04:48:13;;;;;;;5.33;4.80;;;;;;;17.62;68.54;99714.38;4974065;28;20429;-90
2022/07/19 04:50:45;;;;;;;9.13;6.30;;;;;;;17.72;68.22;99727.69;4968566;28;20476;-90
2022/07/19 04:53:16;;;;;;;7.97;6.00;;;;;;;18.00;67.35;99720.69;4987759;28;20457;-90
2022/07/19 04:55:46;;;;;;;7.13;6.10;;;;;;;18.24;66.71;99728.19;4983300;28;20472;-91
2022/07/19 04:58:15;;;;;;;7.00;6.30;;;;;;;18.99;64.30;99713.06;4987227;28;20463;-91
2022/07/19 05:00:42;;;;;;;7.63;6.00;;;;;;;20.71;58.61;99709.13;4966713;28;20470;-92
2022/07/19 05:03:10;;;;;;;6.27;5.40;;;;;;;22.24;54.14;99695.31;4983967;28;20457;-93
2022/07/19 05:05:38;;;;;;;8.77;6.93;;;;;;;23.36;50.56;99700.53;4987604;28;20452;-90
2022/07/19 05:08:17;;;;;;;7.10;6.33;;;;;;;24.23;48.45;99692.09;4985217;28;20448;-91
2022/07/19 05:10:44;;;;;;;6.10;5.10;;;;;;;25.07;46.11;99697.97;4979768;28;21282;-90
2022/07/19 05:13:14;;;;;;;6.40;5.90;;;;;;;25.93;43.94;99683.75;4988033;28;20477;-89
2022/07/19 05:16:00;;;;;;;;;;;;;;;;;;;;;
2022/07/19 05:18:45;;;;;;;9.03;6.17;;;;;;;27.56;40.21;99680.34;4991728;28;20466;-90
2022/07/19 05:21:24;;;;;;;6.40;5.27;;;;;;;28.38;38.61;99682.78;4988453;28;20489;-90
2022/07/19 05:23:52;;;;;;;7.00;5.60;;;;;;;28.96;37.89;99676.59;4989135;28;20470;-91
2022/07/19 05:26:31;;;;;;;6.97;5.67;;;;;;;29.66;36.14;99682.84;4986197;28;20482;-91
2022/07/19 05:29:04;;;;;;;10.20;5.87;;;;;;;30.36;35.37;99670.97;4985814;28;20488;-91
2022/07/19 05:31:34;;;;;;;11.77;6.00;;;;;;;30.86;34.18;99670.81;4985255;28;20449;-90
2022/07/19 05:33:59;;;;;;;9.77;6.60;;;;;;;31.04;32.93;99673.50;4971535;28;20493;-89
2022/07/19 05:36:25;;;;;;;7.80;6.43;;;;;;;30.93;33.48;99676.97;4966105;28;20472;-90
2022/07/19 05:38:53;;;;;;;6.57;5.80;;;;;;;30.99;33.48;99673.34;4968660;28;20269;-91
2022/07/19 05:41:21;;;;;;;7.30;5.43;;;;;;;30.97;32.83;99675.44;4969551;28;21042;-90
2022/07/19 05:43:47;;;;;;;9.03;5.77;;;;;;;31.08;32.45;99666.56;4968927;28;20492;-91
2022/07/19 05:46:16;;;;;;;5.53;5.10;;;;;;;31.39;32.52;99661.13;4967147;28;20477;-91
2022/07/19 05:48:42;;;;;;;11.50;6.67;;;;;;;31.93;31.59;99657.31;4976266;28;20471;-91
2022/07/19 05:51:07;;;;;;;6.23;5.30;;;;;;;32.38;30.82;99661.31;4968679;28;20449;-90
2022/07/19 05:53:37;;;;;;;6.53;5.97;;;;;;;32.77;30.26;99656.97;4967237;28;20264;-91
2022/07/19 05:56:04;;;;;;;6.33;5.73;;;;;;;32.94;29.97;99661.63;4962268;28;20330;-91
2022/07/19 05:58:33;;;;;;;6.77;5.00;;;;;;;33.09;29.90;99659.22;4964526;28;20456;-91
2022/07/19 06:01:18;;;;;;;7.17;5.23;;;;;;;33.54;29.00;99661.16;4964349;28;21049;-91
2022/07/19 06:03:45;;;;;;;6.43;4.97;;;;;;;34.09;27.92;99652.19;4965756;28;20527;-91
2022/07/19 06:06:14;;;;;;;7.63;6.83;;;;;;;34.52;27.38;99649.75;4962730;28;20479;-91
2022/07/19 06:08:40;;;;;;;12.07;5.93;;;;;;;34.52;27.07;99647.03;4962850;28;20465;-91
2022/07/19 06:11:06;;;;;;;7.90;5.53;;;;;;;34.78;26.93;99645.44;4965588;28;20489;-91
2022/07/19 06:13:32;;;;;;;9.20;5.70;;;;;;;35.06;26.61;99643.56;4965793;28;20209;-91
2022/07/19 06:16:10;;;;;;;;;;;;;;;;;;;;;
2022/07/19 06:18:36;;;;;;;8.50;5.17;;;;;;;35.68;25.09;99643.88;4961913;28;20229;-91
2022/07/19 06:21:11;;;;;;;6.03;5.20;;;;;;;36.03;24.06;99647.13;4965681;28;20735;-91
2022/07/19 06:23:43;;;;;;;8.13;5.33;;;;;;;36.24;23.57;99642.59;4964524;28;20457;-90
2022/07/19 06:26:10;;;;;;;5.77;5.07;;;;;;;36.69;23.33;99641.97;4958243;28;21082;-90
2022/07/19 06:28:44;;;;;;;8.80;4.40;;;;;;;36.90;23.29;99642.88;4945632;28;20587;-91
2022/07/19 06:31:11;;;;;;;14.67;5.93;;;;;;;36.83;23.71;99639.56;4965087;28;20548;-91
2022/07/19 06:33:44;;;;;;;10.40;5.85;;;;;;;37.04;22.25;99645.13;4962689;28;20481;-92
2022/07/19 06:36:10;;;;;;;5.83;4.67;;;;;;;36.75;22.52;99638.19;4941679;28;20210;-91
2022/07/19 06:38:36;;;;;;;5.37;4.60;;;;;;;36.77;22.86;99640.66;4947420;28;20493;-91
2022/07/19 06:41:01;;;;;;;9.23;5.73;;;;;;;36.67;23.42;99640.59;4944242;29;20458;-93
2022/07/19 06:43:30;;;;;;;6.63;5.97;;;;;;;36.87;23.31;99642.59;4944060;29;20199;-91
2022/07/19 06:45:59;;;;;;;7.63;5.80;;;;;;;37.19;23.10;99643.22;4943818;28;20482;-91
2022/07/19 06:48:25;;;;;;;6.53;5.20;;;;;;;37.47;22.38;99643.78;4944396;28;20465;-90
2022/07/19 06:50:51;;;;;;;13.60;6.20;;;;;;;37.87;21.97;99636.63;4944212;29;20473;-91
2022/07/19 06:53:16;;;;;;;10.00;5.77;;;;;;;38.09;21.67;99628.09;4928419;29;20210;-92
2022/07/19 06:55:42;;;;;;;7.07;6.00;;;;;;;38.42;21.50;99632.13;4944100;29;20194;-90
2022/07/19 06:58:12;;;;;;;12.83;5.73;;;;;;;38.38;21.21;99625.53;4944614;29;20265;-91
2022/07/19 07:00:38;;;;;;;10.67;5.00;;;;;;;38.07;21.34;99636.59;4943259;29;20199;-92
2022/07/19 07:03:09;;;;;;;9.40;6.30;;;;;;;37.83;21.61;99641.00;4941670;29;20786;-91
2022/07/19 07:05:35;;;;;;;5.40;4.90;;;;;;;37.97;21.46;99642.13;4942912;28;20783;-88
2022/07/19 07:08:01;;;;;;;6.20;5.67;;;;;;;37.82;20.94;99637.47;4944303;29;20805;-91
2022/07/19 07:10:30;;;;;;;6.50;5.77;;;;;;;37.80;20.97;99633.34;4946026;29;20494;-90
2022/07/19 07:12:55;;;;;;;11.23;6.00;;;;;;;37.96;20.75;99635.00;4943786;29;20214;-91
2022/07/19 07:15:23;;;;;;;7.43;5.43;;;;;;;38.27;20.14;99638.47;4944419;29;20454;-90
2022/07/19 07:17:48;;;;;;;5.87;5.27;;;;;;;38.62;20.05;99625.72;4943194;29;20194;-88
2022/07/19 07:20:17;;;;;;;6.30;5.37;;;;;;;38.67;20.04;99624.84;4944743;29;20974;-90
2022/07/19 07:22:43;;;;;;;5.63;5.00;;;;;;;38.99;19.41;99629.09;4941009;29;20204;-91
2022/07/19 07:25:12;;;;;;;5.90;5.40;;;;;;;38.96;19.42;99625.00;4944227;29;20454;-91
2022/07/19 07:27:41;;;;;;;6.73;5.77;;;;;;;39.00;19.25;99615.09;4942042;29;20266;-90
2022/07/19 07:30:07;;;;;;;5.40;4.90;;;;;;;39.31;19.00;99617.59;4920890;29;20520;-89
2022/07/19 07:32:33;;;;;;;5.93;4.70;;;;;;;39.46;19.12;99614.75;4926121;29;20507;-91
2022/07/19 07:34:58;;;;;;;4.87;3.83;;;;;;;39.44;19.17;99608.69;4943747;29;20550;-91
2022/07/19 07:37:27;;;;;;;4.47;4.17;;;;;;;39.56;18.94;99608.31;4941132;29;20211;-90
2022/07/19 07:39:55;;;;;;;8.50;5.20;;;;;;;39.53;18.76;99612.44;4944522;29;20268;-90
2022/07/19 07:42:21;;;;;;;4.83;4.43;;;;;;;39.35;18.62;99615.94;4943010;29;20830;-90
2022/07/19 07:44:49;;;;;;;5.87;4.57;;;;;;;39.17;18.52;99615.50;4943435;29;20207;-91
2022/07/19 07:47:20;;;;;;;5.57;3.83;;;;;;;39.16;17.73;99613.03;4943390;29;20466;-88
2022/07/19 07:49:46;;;;;;;5.33;4.20;;;;;;;38.83;17.92;99609.94;4944237;29;21077;-91
2022/07/19 07:52:11;;;;;;;5.60;4.80;;;;;;;39.05;17.89;99611.47;4947396;29;20665;-89
2022/07/19 07:54:38;;;;;;;4.83;4.10;;;;;;;39.37;17.52;99608.22;4946491;29;20202;-90
2022/07/19 07:57:05;;;;;;;6.20;3.90;;;;;;;39.26;17.73;99603.88;4952710;28;20289;-91
2022/07/19 07:59:31;;;;;;;6.60;4.33;;;;;;;39.11;17.80;99600.16;4943029;29;20549;-90
2022/07/19 08:02:04;;;;;;;4.40;4.10;;;;;;;39.05;17.93;99600.47;4926907;29;20301;-90
2022/07/19 08:04:32;;;;;;;5.00;4.50;;;;;;;39.11;18.06;99596.59;4948706;29;20474;-92
2022/07/19 08:07:04;;;;;;;5.60;4.17;;;;;;;38.86;18.39;99592.91;4943873;29;20454;-90
2022/07/19 08:09:31;;;;;;;4.53;4.07;;;;;;;38.64;18.55;99589.75;4942989;29;20505;-93
2022/07/19 08:11:56;;;;;;;9.73;5.07;;;;;;;38.79;18.58;99592.41;4943484;29;20862;-92
2022/07/19 08:14:24;;;;;;;4.67;4.27;;;;;;;39.19;18.30;99590.50;4925950;29;20513;-91
2022/07/19 08:16:50;;;;;;;4.70;4.20;;;;;;;39.33;17.99;99582.44;4941100;29;20466;-90
2022/07/19 08:19:18;;;;;;;5.27;4.77;;;;;;;39.53;18.06;99578.66;4925742;29;20643;-93
2022/07/19 08:21:47;;;;;;;5.63;5.13;;;;;;;39.85;17.83;99582.75;4944836;29;20466;-92
2022/07/19 08:24:15;;;;;;;5.70;4.77;;;;;;;39.93;17.94;99576.63;4945282;29;20202;-91
2022/07/19 08:26:43;;;;;;;4.90;4.50;;;;;;;39.21;18.60;99568.19;4909077;29;20488;-92
2022/07/19 08:29:11;;;;;;;6.63;5.30;;;;;;;39.35;18.85;99561.78;4940679;28;20484;-90
2022/07/19 08:31:39;;;;;;;5.93;5.43;;;;;;;39.41;18.77;99564.50;4944676;29;20454;-93
2022/07/19 08:34:04;;;;;;;6.57;5.20;;;;;;;39.25;19.32;99564.59;4942534;29;20484;-90
2022/07/19 08:36:30;;;;;;;6.83;4.33;;;;;;;38.66;20.35;99565.56;4944514;29;20723;-91
2022/07/19 08:38:56;;;;;;;6.07;5.40;;;;;;;37.84;21.55;99566.72;4942947;28;20230;-90
2022/07/19 08:41:21;;;;;;;6.20;5.17;;;;;;;36.80;23.06;99568.13;4943656;29;20230;-91
2022/07/19 08:43:49;;;;;;;5.63;5.07;;;;;;;35.92;23.66;99566.97;4942559;29;20199;-90
2022/07/19 08:46:17;;;;;;;5.43;4.93;;;;;;;34.86;25.48;99562.28;4944804;29;20214;-91
2022/07/19 08:48:44;;;;;;;4.90;4.50;;;;;;;34.38;26.03;99567.50;4943045;29;20813;-90
2022/07/19 08:51:11;;;;;;;7.47;4.80;;;;;;;34.34;26.06;99560.91;4944319;29;20457;-89
2022/07/19 08:53:40;;;;;;;5.83;4.93;;;;;;;34.36;25.68;99564.19;4944093;29;20458;-92
2022/07/19 08:57:56;;;;;;;5.67;5.20;;;;;;;34.23;25.53;99559.13;4943499;29;20469;-91
2022/07/19 08:58:52;;;;;;;5.70;5.13;;;;;;;34.08;25.41;99557.88;4945940;29;20450;-88
2022/07/19 09:01:18;;;;;;;6.40;4.17;;;;;;;34.05;25.60;99563.84;4946212;29;20466;-90
2022/07/19 09:04:03;;;;;;;5.67;4.70;;;;;;;34.18;25.66;99556.34;4926249;29;20213;-89
2022/07/19 09:06:39;;;;;;;5.67;5.07;;;;;;;34.29;25.93;99564.38;4940934;29;21069;-89
2022/07/19 09:09:15;;;;;;;5.17;4.77;;;;;;;34.39;26.02;99558.22;4952594;28;20504;-89
2022/07/19 09:11:48;;;;;;;9.83;4.67;;;;;;;34.45;26.19;99561.84;4965487;28;20872;-89
2022/07/19 09:14:16;;;;;;;5.37;4.87;;;;;;;34.54;26.35;99557.56;4963928;28;20465;-88
2022/07/19 09:16:54;;;;;;;5.17;4.50;;;;;;;34.47;26.26;99565.13;4947227;28;20445;-89
2022/07/19 09:19:20;;;;;;;4.03;3.70;;;;;;;34.65;25.67;99561.25;4964895;28;20523;-90
2022/07/19 09:22:10;;;;;;;5.00;4.43;;;;;;;35.02;25.03;99558.63;4965809;28;21169;-88
2022/07/19 09:24:39;;;;;;;3.50;3.30;;;;;;;35.18;24.38;99548.69;4934500;28;20478;-91
2022/07/19 09:27:17;;;;;;;3.57;3.27;;;;;;;34.94;24.04;99554.44;4930555;29;20473;-91
2022/07/19 09:29:55;;;;;;;3.87;3.60;;;;;;;34.99;23.81;99546.31;4940149;29;20478;-90
2022/07/19 09:32:23;;;;;;;4.30;3.90;;;;;;;34.95;23.18;99544.38;4927466;29;20530;-92
2022/07/19 09:34:52;;;;;;;5.07;4.67;;;;;;;34.81;23.65;99549.44;4928262;29;20218;-87
2022/07/19 09:37:28;;;;;;;3.00;2.80;;;;;;;35.03;23.51;99539.25;4931004;29;20469;-87
2022/07/19 09:40:04;;;;;;;4.40;3.30;;;;;;;35.18;23.40;99537.75;4929452;29;20525;-89
2022/07/19 09:42:43;;;;;;;6.50;4.27;;;;;;;35.43;22.93;99534.38;4932943;29;20458;-88
2022/07/19 09:45:11;;;;;;;5.00;4.50;;;;;;;35.70;22.82;99528.00;4934517;29;21023;-88
2022/07/19 09:47:40;;;;;;;3.80;3.50;;;;;;;35.97;22.53;99533.34;4930305;29;20823;-89
2022/07/19 09:50:12;;;;;;;5.27;3.60;;;;;;;36.18;22.39;99524.16;4925011;29;20725;-91
2022/07/19 09:52:39;;;;;;;5.17;3.73;;;;;;;36.36;22.47;99527.50;4926932;29;20463;-90
2022/07/19 09:55:08;;;;;;;5.03;4.50;;;;;;;36.53;22.32;99519.88;4862815;29;20488;-90
2022/07/19 09:57:44;;;;;;;4.07;3.77;;;;;;;36.57;22.29;99521.03;4888124;29;20602;-89
2022/07/19 10:00:13;;;;;;;4.10;3.70;;;;;;;36.50;22.53;99512.22;4889881;29;20524;-88
2022/07/19 10:02:43;;;;;;;8.80;3.80;;;;;;;36.51;22.55;99511.94;4889477;29;20473;-87
2022/07/19 10:05:13;;;;;;;6.67;4.00;;;;;;;36.52;22.73;99516.31;4891160;29;20503;-90
2022/07/19 10:07:49;;;;;;;11.33;5.47;;;;;;;36.54;22.24;99505.97;4890028;29;20460;-88
2022/07/19 10:10:20;;;;;;;8.57;4.30;;;;;;;36.78;22.27;99508.16;4880084;29;20493;-89
2022/07/19 10:12:51;;;;;;;5.30;4.27;;;;;;;36.98;21.40;99512.84;4883040;29;20460;-90
2022/07/19 10:15:19;;;;;;;4.77;4.00;;;;;;;36.94;21.87;99498.88;4870386;29;20468;-87
2022/07/19 10:17:45;;;;;;;4.60;3.90;;;;;;;36.93;21.54;99493.66;4867023;29;20472;-87
2022/07/19 10:20:15;;;;;;;4.93;3.87;;;;;;;37.06;21.79;99498.63;4872998;29;20466;-89
2022/07/19 10:22:49;;;;;;;4.13;3.80;;;;;;;37.08;21.38;99493.69;4866041;29;20201;-91
2022/07/19 10:25:18;;;;;;;3.70;3.40;;;;;;;37.01;21.73;99492.28;4875240;29;20509;-89
2022/07/19 10:27:48;;;;;;;4.80;3.20;;;;;;;37.22;21.58;99490.41;4892411;29;20503;-88
2022/07/19 10:30:24;;;;;;;3.83;3.43;;;;;;;37.31;21.78;99491.47;4885141;29;20996;-87
2022/07/19 10:32:56;;;;;;;4.63;4.20;;;;;;;37.42;21.56;99487.59;4888418;29;20488;-88
2022/07/19 10:35:30;;;;;;;14.00;4.10;;;;;;;37.37;21.28;99477.47;4878764;29;20465;-88
2022/07/19 10:38:10;;;;;;;4.43;4.03;;;;;;;37.50;21.36;99472.53;4889554;29;20473;-89
2022/07/19 10:40:51;;;;;;;4.73;3.97;;;;;;;37.70;21.29;99471.63;4896499;29;20465;-88
2022/07/19 10:43:29;;;;;;;4.47;3.03;;;;;;;37.74;21.17;99465.31;4885206;29;20537;-88
2022/07/19 10:45:59;;;;;;;5.03;3.83;;;;;;;37.67;21.08;99464.78;4883952;29;20567;-88
2022/07/19 10:48:45;;;;;;;6.07;3.60;;;;;;;37.48;21.24;99471.97;4869612;29;20465;-87
2022/07/19 10:51:26;;;;;;;3.40;3.20;;;;;;;37.37;21.30;99466.50;4942210;28;20509;-89
2022/07/19 10:54:00;;;;;;;5.90;3.70;;;;;;;37.34;20.99;99463.50;4944248;29;20469;-88
2022/07/19 10:56:33;;;;;;;3.77;3.40;;;;;;;37.34;20.70;99464.31;4943241;29;20493;-89
2022/07/19 10:59:03;;;;;;;4.00;3.70;;;;;;;37.14;21.00;99461.66;4945700;29;20469;-88
2022/07/19 11:01:32;;;;;;;3.53;3.10;;;;;;;37.06;21.14;99463.03;4947612;28;20982;-90
2022/07/19 11:04:29;;;;;;;3.07;2.77;;;;;;;37.01;20.86;99462.19;4944125;29;20454;-90
2022/07/19 11:07:27;;;;;;;4.03;3.63;;;;;;;36.94;21.16;99454.22;4948838;29;20525;-89
2022/07/19 11:10:04;;;;;;;3.83;3.30;;;;;;;36.91;20.80;99443.84;4950134;28;20493;-87
2022/07/19 11:12:32;;;;;;;5.83;3.23;;;;;;;36.95;20.67;99447.69;4962804;28;20465;-90
2022/07/19 11:15:00;;;;;;;3.30;3.10;;;;;;;36.96;20.60;99436.44;4963066;28;20976;-89
2022/07/19 11:17:29;;;;;;;5.03;3.80;;;;;;;37.05;20.59;99438.63;4963673;28;20893;-86
2022/07/19 11:20:04;;;;;;;5.23;3.67;;;;;;;37.14;20.42;99440.56;4962626;28;20469;-88
2022/07/19 11:22:43;;;;;;;4.70;2.70;;;;;;;37.20;20.03;99441.34;4963009;28;20201;-87
2022/07/19 11:25:11;;;;;;;5.90;3.33;;;;;;;37.23;20.00;99429.84;4960443;28;20532;-88
2022/07/19 11:27:47;;;;;;;3.30;2.67;;;;;;;37.27;19.77;99421.88;4963143;28;20741;-87
2022/07/19 11:30:15;;;;;;;3.70;3.40;;;;;;;37.15;19.96;99428.47;4960362;28;20468;-87
2022/07/19 11:32:51;;;;;;;6.10;3.57;;;;;;;37.03;19.87;99422.50;4965372;28;20983;-90
2022/07/19 11:35:19;;;;;;;3.83;3.07;;;;;;;36.97;20.07;99424.41;4963178;28;20526;-86
2022/07/19 11:37:47;;;;;;;4.80;3.13;;;;;;;37.00;20.02;99423.03;4965429;28;20511;-88
2022/07/19 11:40:13;;;;;;;4.30;3.30;;;;;;;36.99;20.00;99411.22;4962605;28;20473;-87
2022/07/19 11:42:47;;;;;;;4.00;3.10;;;;;;;36.93;20.03;99417.00;4964720;28;20860;-88
2022/07/19 11:45:25;;;;;;;3.37;3.07;;;;;;;36.88;20.09;99415.09;4947917;28;20583;-88
2022/07/19 11:47:56;;;;;;;3.90;3.10;;;;;;;36.81;20.17;99408.25;4965683;28;20460;-87
2022/07/19 11:50:24;;;;;;;4.17;3.33;;;;;;;36.77;20.33;99406.06;4966281;28;20615;-88
2022/07/19 11:52:57;;;;;;;7.40;3.70;;;;;;;36.70;20.52;99410.19;4965876;28;20528;-87
2022/07/19 11:55:28;;;;;;;4.73;3.30;;;;;;;36.69;20.81;99414.84;4964925;28;20605;-90
2022/07/19 11:58:01;;;;;;;3.83;3.20;;;;;;;36.72;20.70;99413.47;4966003;28;20804;-88
2022/07/19 12:00:34;;;;;;;4.07;3.50;;;;;;;36.77;20.38;99399.78;4959779;28;21152;-87
2022/07/19 12:03:04;;;;;;;3.60;3.40;;;;;;;36.83;20.31;99401.41;4961519;28;20460;-87